Time;durP1;ratioP1;P1;durP2;ratioP2;P2;SDS_P1;SDS_P2;PMS_P1;PMS_P2;Temp;Humidity;BMP_temperature;BMP_pressure;BME280_temperature;BME280_humidity;BME280_pressure;Samples;Min_cycle;Max_cycle;Signal;HPM_P1;HPM_P2
2023/03/07 00:01:27;;;;;;;15.20;11.00;;;6.30;99.90;;;;;;5080202;28;20017;-75
2023/03/07 00:03:53;;;;;;;14.65;10.85;;;6.40;99.90;;;;;;5078843;28;20485;-74
2023/03/07 00:06:20;;;;;;;14.98;9.75;;;6.40;99.90;;;;;;5089547;28;20135;-75
2023/03/07 00:08:51;;;;;;;13.65;9.80;;;6.50;99.90;;;;;;5078004;28;20040;-75
2023/03/07 00:11:20;;;;;;;15.45;10.55;;;6.50;99.90;;;;;;5090325;28;20039;-75
2023/03/07 00:13:46;;;;;;;14.73;9.95;;;6.50;99.90;;;;;;5077365;28;20038;-76
2023/03/07 00:16:14;;;;;;;12.85;9.13;;;6.40;99.90;;;;;;5089992;28;20024;-75
2023/03/07 00:18:40;;;;;;;16.70;10.00;;;6.50;99.90;;;;;;5083426;28;20099;-75
2023/03/07 00:21:09;;;;;;;13.82;9.25;;;6.40;99.90;;;;;;5069991;28;20815;-75
2023/03/07 00:23:36;;;;;;;13.15;9.00;;;6.40;99.90;;;;;;5080835;28;20501;-75
2023/03/07 00:26:11;;;;;;;16.15;9.35;;;6.30;99.90;;;;;;5089757;28;20017;-75
2023/03/07 00:28:36;;;;;;;15.80;10.45;;;6.40;99.90;;;;;;5079351;28;20055;-75
2023/03/07 00:31:05;;;;;;;12.27;8.75;;;6.30;99.90;;;;;;5087334;28;20486;-75
2023/03/07 00:33:31;;;;;;;14.10;9.75;;;6.20;99.90;;;;;;5081799;28;20020;-76
2023/03/07 00:36:03;;;;;;;17.83;10.48;;;6.30;99.90;;;;;;5084933;28;20386;-75
2023/03/07 00:38:30;;;;;;;14.60;9.25;;;6.30;99.90;;;;;;5083224;28;20500;-75
2023/03/07 00:41:00;;;;;;;13.50;8.40;;;6.30;99.90;;;;;;5083329;28;20069;-75
2023/03/07 00:43:26;;;;;;;;;;;6.40;99.90;;;;;;5089122;28;20046;-77
2023/03/07 00:45:51;;;;;;;9.73;6.85;;;6.40;99.90;;;;;;5088612;28;20722;-75
2023/03/07 00:48:17;;;;;;;13.00;8.13;;;6.30;99.90;;;;;;5087239;28;20020;-76
2023/03/07 00:50:43;;;;;;;11.65;6.22;;;6.40;99.90;;;;;;5078258;28;20032;-74
2023/03/07 00:53:09;;;;;;;10.43;6.90;;;6.30;99.90;;;;;;5087691;28;20147;-75
2023/03/07 00:55:34;;;;;;;12.13;7.00;;;6.30;99.90;;;;;;5080573;28;20099;-75
2023/03/07 00:58:01;;;;;;;13.75;7.18;;;6.20;99.90;;;;;;5068455;28;20027;-75
2023/03/07 01:00:26;;;;;;;17.60;8.50;;;6.30;99.90;;;;;;5073148;28;20039;-75
2023/03/07 01:02:52;;;;;;;13.20;7.38;;;6.40;99.90;;;;;;5088095;28;20032;-74
2023/03/07 01:05:18;;;;;;;12.70;7.82;;;6.40;99.90;;;;;;5083790;28;20169;-74
2023/03/07 01:07:43;;;;;;;12.55;8.68;;;6.40;99.90;;;;;;5068606;28;20774;-75
2023/03/07 01:10:09;;;;;;;16.92;9.70;;;6.40;99.90;;;;;;5074367;28;20056;-74
2023/03/07 01:12:35;;;;;;;19.23;9.88;;;6.40;99.90;;;;;;5087941;28;20032;-75
2023/03/07 01:15:04;;;;;;;16.58;9.82;;;6.40;99.90;;;;;;5080088;28;20021;-75
2023/03/07 01:17:29;;;;;;;15.85;9.95;;;6.40;99.90;;;;;;5085723;28;20035;-75
2023/03/07 01:19:55;;;;;;;18.92;12.13;;;6.50;99.90;;;;;;5081065;28;20008;-74
2023/03/07 01:22:21;;;;;;;17.92;11.75;;;6.50;99.90;;;;;;5088444;28;20020;-75
2023/03/07 01:24:46;;;;;;;23.25;11.65;;;6.50;99.90;;;;;;5084764;28;20019;-75
2023/03/07 01:27:12;;;;;;;20.20;13.35;;;6.50;99.90;;;;;;5077132;28;20479;-75
2023/03/07 01:29:37;;;;;;;23.88;13.48;;;6.50;99.90;;;;;;5072884;28;20027;-75
2023/03/07 01:32:03;;;;;;;22.10;12.18;;;6.60;99.90;;;;;;5075938;28;20068;-74
2023/03/07 01:34:29;;;;;;;20.40;14.25;;;6.60;99.90;;;;;;5087379;28;20033;-73
2023/03/07 01:36:54;;;;;;;22.63;13.02;;;6.60;99.90;;;;;;5077399;28;20024;-76
2023/03/07 01:39:20;;;;;;;23.67;15.07;;;6.60;99.90;;;;;;5088568;28;20024;-74
2023/03/07 01:41:46;;;;;;;24.30;13.63;;;6.60;99.90;;;;;;5076422;28;20104;-74
2023/03/07 01:44:17;;;;;;;22.23;12.52;;;6.50;99.90;;;;;;5089077;28;20119;-75
2023/03/07 01:46:43;;;;;;;20.42;12.07;;;6.50;99.90;;;;;;5076068;28;20032;-75
2023/03/07 01:49:20;;;;;;;21.23;13.20;;;6.60;99.90;;;;;;5088712;28;20024;-74
2023/03/07 01:51:51;;;;;;;19.70;11.65;;;6.60;99.90;;;;;;5073145;28;20037;-74
2023/03/07 01:54:18;;;;;;;;;;;6.60;99.90;;;;;;5089326;28;20028;-75
2023/03/07 01:56:45;;;;;;;18.15;10.50;;;6.60;99.90;;;;;;5084159;28;19908;-76
2023/03/07 01:59:12;;;;;;;16.42;10.73;;;6.60;99.90;;;;;;5069537;28;20024;-75
2023/03/07 02:01:38;;;;;;;19.05;10.50;;;6.50;99.90;;;;;;5076228;28;20020;-74
2023/03/07 02:05:02;;;;;;;16.17;9.45;;;6.50;99.90;;;;;;5083978;28;20032;-76
2023/03/07 02:07:33;;;;;;;17.30;8.63;;;6.50;99.90;;;;;;5023167;28;20044;-74
2023/03/07 02:10:01;;;;;;;17.23;9.10;;;6.40;99.90;;;;;;5006679;28;20180;-74
2023/03/07 02:12:27;;;;;;;17.10;10.70;;;6.50;99.90;;;;;;5051545;28;20044;-75
2023/03/07 02:14:52;;;;;;;17.58;10.00;;;6.50;99.90;;;;;;5092201;28;20452;-75
2023/03/07 02:17:19;;;;;;;13.52;9.10;;;6.50;99.90;;;;;;5082416;28;20493;-75
2023/03/07 02:19:59;;;;;;;15.23;9.68;;;6.50;99.90;;;;;;5089856;28;20382;-75
2023/03/07 02:22:24;;;;;;;;;;;6.50;99.90;;;;;;5083142;28;20056;-75
2023/03/07 02:24:57;;;;;;;20.13;10.73;;;6.60;99.90;;;;;;5089354;28;19943;-75
2023/03/07 02:27:28;;;;;;;18.52;10.40;;;6.50;99.90;;;;;;5088109;28;20024;-75
2023/03/07 02:29:53;;;;;;;15.88;9.60;;;6.50;99.90;;;;;;5075185;28;20032;-75
2023/03/07 02:32:19;;;;;;;18.00;10.88;;;6.60;99.90;;;;;;5077671;28;20036;-74
2023/03/07 02:34:45;;;;;;;21.15;12.23;;;6.50;99.90;;;;;;5078010;28;20089;-73
2023/03/07 02:37:15;;;;;;;13.43;8.73;;;6.50;99.90;;;;;;5075746;28;20052;-74
2023/03/07 02:39:44;;;;;;;17.88;9.93;;;6.50;99.90;;;;;;5083858;28;20031;-74
2023/03/07 02:42:26;;;;;;;15.02;9.48;;;6.60;99.90;;;;;;5089550;28;20024;-72
2023/03/07 02:44:57;;;;;;;19.77;10.85;;;6.60;99.90;;;;;;5084003;28;20027;-75
2023/03/07 02:47:23;;;;;;;16.92;11.05;;;6.60;99.90;;;;;;5089412;28;20017;-74
2023/03/07 02:49:48;;;;;;;13.68;8.35;;;6.60;99.90;;;;;;5081978;28;20085;-74
2023/03/07 02:52:14;;;;;;;16.27;9.57;;;6.70;99.90;;;;;;5088265;28;20051;-73
2023/03/07 02:54:40;;;;;;;14.50;9.32;;;6.60;99.90;;;;;;5082396;28;20028;-73
2023/03/07 02:57:05;;;;;;;17.35;9.65;;;6.60;99.90;;;;;;5072981;28;20082;-74
2023/03/07 02:59:31;;;;;;;11.20;7.90;;;6.60;99.90;;;;;;5086804;28;20025;-74
2023/03/07 03:01:57;;;;;;;11.25;6.60;;;6.60;99.90;;;;;;5090684;28;20034;-74
2023/03/07 03:04:22;;;;;;;14.10;7.93;;;6.50;99.60;;;;;;5078108;28;20032;-74
2023/03/07 03:06:48;;;;;;;16.63;8.10;;;6.60;99.60;;;;;;5091956;28;20020;-74
2023/03/07 03:09:15;;;;;;;16.48;8.65;;;6.60;99.40;;;;;;5079367;28;20174;-75
2023/03/07 03:11:40;;;;;;;15.55;6.72;;;6.60;99.30;;;;;;5091436;28;20032;-74
2023/03/07 03:14:06;;;;;;;14.30;7.50;;;6.60;99.20;;;;;;5078348;28;20031;-74
2023/03/07 03:16:32;;;;;;;12.98;7.93;;;6.60;99.20;;;;;;5071436;28;20060;-74
2023/03/07 03:18:57;;;;;;;15.68;7.03;;;6.60;99.00;;;;;;5073141;28;20471;-74
2023/03/07 03:21:23;;;;;;;13.48;7.20;;;6.60;99.00;;;;;;5086039;28;20086;-74
2023/03/07 03:23:48;;;;;;;12.02;6.55;;;6.60;99.00;;;;;;5085305;28;20021;-75
2023/03/07 03:26:14;;;;;;;12.30;7.32;;;6.60;99.00;;;;;;5078858;28;20032;-74
2023/03/07 03:28:40;;;;;;;14.85;5.88;;;6.60;99.10;;;;;;5071748;28;20500;-74
2023/03/07 03:31:15;;;;;;;10.75;6.07;;;6.60;99.00;;;;;;5091212;28;20031;-74
2023/03/07 03:33:45;;;;;;;17.70;6.63;;;6.60;99.00;;;;;;5087523;28;20023;-74
2023/03/07 03:36:15;;;;;;;9.43;6.28;;;6.60;99.00;;;;;;5081817;28;20051;-74
2023/03/07 03:38:41;;;;;;;15.48;7.43;;;6.60;99.00;;;;;;5072063;28;20469;-74
2023/03/07 03:41:11;;;;;;;17.98;8.07;;;6.60;99.00;;;;;;5081166;28;20024;-74
2023/03/07 03:43:36;;;;;;;11.27;6.40;;;6.60;99.00;;;;;;5070833;28;20021;-73
2023/03/07 03:46:02;;;;;;;20.38;8.15;;;6.60;99.00;;;;;;5082568;28;20027;-73
2023/03/07 03:48:29;;;;;;;12.18;7.57;;;6.70;99.00;;;;;;5070775;28;20024;-74
2023/03/07 03:51:04;;;;;;;18.15;7.43;;;6.70;99.00;;;;;;5075556;28;20036;-74
2023/03/07 03:53:32;;;;;;;19.10;8.23;;;6.70;98.90;;;;;;5090384;28;20074;-75
2023/03/07 03:56:07;;;;;;;17.33;7.97;;;6.70;98.90;;;;;;5076503;28;20056;-74
2023/03/07 03:58:33;;;;;;;15.98;7.57;;;6.70;98.90;;;;;;5090665;28;20031;-73
2023/03/07 04:01:04;;;;;;;20.05;8.00;;;6.70;98.90;;;;;;5077432;28;20104;-74
2023/03/07 04:03:32;;;;;;;22.02;8.48;;;6.70;98.90;;;;;;5087028;28;20486;-73
2023/03/07 04:06:05;;;;;;;18.63;8.85;;;6.70;99.10;;;;;;5086418;28;20495;-74
2023/03/07 04:08:32;;;;;;;15.40;8.30;;;6.70;99.10;;;;;;5070611;28;20044;-73
2023/03/07 04:10:58;;;;;;;17.33;9.10;;;6.70;99.20;;;;;;5082650;28;20398;-73
2023/03/07 04:13:24;;;;;;;13.15;7.75;;;6.70;99.10;;;;;;5072536;28;20027;-74
2023/03/07 04:15:51;;;;;;;17.08;8.93;;;6.80;99.20;;;;;;5077008;28;20016;-75
2023/03/07 04:18:17;;;;;;;16.63;8.43;;;6.80;99.20;;;;;;5076259;28;20021;-75
2023/03/07 04:20:44;;;;;;;14.73;8.63;;;6.80;99.20;;;;;;5081136;28;20111;-73
2023/03/07 04:23:10;;;;;;;22.08;9.70;;;6.80;99.20;;;;;;5068306;28;20028;-74
2023/03/07 04:25:36;;;;;;;17.80;10.52;;;6.90;99.20;;;;;;5071508;28;20031;-73
2023/03/07 04:28:01;;;;;;;18.60;10.18;;;6.90;99.20;;;;;;5080177;28;20475;-75
2023/03/07 04:30:27;;;;;;;21.52;11.45;;;6.90;99.10;;;;;;5070376;28;20039;-74
2023/03/07 04:32:53;;;;;;;16.13;10.55;;;6.90;99.10;;;;;;5081031;28;20017;-74
2023/03/07 04:35:19;;;;;;;24.33;10.30;;;6.80;99.10;;;;;;5067887;28;20029;-73
2023/03/07 04:37:44;;;;;;;16.33;10.00;;;6.80;99.10;;;;;;5081468;28;20111;-75
2023/03/07 04:40:10;;;;;;;20.48;11.13;;;6.70;99.20;;;;;;5069353;28;20031;-74
2023/03/07 04:42:36;;;;;;;20.10;11.38;;;6.70;99.20;;;;;;5082082;28;20020;-74
2023/03/07 04:45:02;;;;;;;16.45;8.60;;;6.70;99.20;;;;;;5069528;28;20478;-73
2023/03/07 04:47:28;;;;;;;17.25;9.45;;;6.60;99.10;;;;;;5071873;28;20489;-73
2023/03/07 04:49:53;;;;;;;16.60;9.70;;;6.60;99.10;;;;;;5072573;28;20024;-74
2023/03/07 04:52:19;;;;;;;21.70;10.50;;;6.70;99.10;;;;;;5073516;28;20139;-74
2023/03/07 04:54:44;;;;;;;15.35;7.50;;;6.70;99.10;;;;;;5086282;28;20039;-74
2023/03/07 04:57:10;;;;;;;13.43;7.47;;;6.60;99.10;;;;;;5082251;28;20103;-74
2023/03/07 04:59:38;;;;;;;17.13;8.60;;;6.60;99.00;;;;;;5083618;28;20031;-74
2023/03/07 05:02:10;;;;;;;17.00;8.73;;;6.60;98.90;;;;;;5085081;28;20016;-74
2023/03/07 05:04:36;;;;;;;13.88;7.90;;;6.70;98.90;;;;;;5076515;28;20560;-73
2023/03/07 05:07:02;;;;;;;18.05;8.88;;;6.70;98.90;;;;;;5071360;28;20059;-74
2023/03/07 05:09:28;;;;;;;15.88;8.18;;;6.70;98.70;;;;;;5078776;28;20045;-74
2023/03/07 05:11:53;;;;;;;15.98;7.88;;;6.70;98.60;;;;;;5070268;28;20039;-74
2023/03/07 05:14:19;;;;;;;18.90;8.00;;;6.60;98.70;;;;;;5078476;28;20534;-73
2023/03/07 05:16:44;;;;;;;22.52;10.98;;;6.60;98.80;;;;;;5069552;28;20060;-74
2023/03/07 05:19:12;;;;;;;19.38;10.95;;;6.70;98.90;;;;;;5080462;28;20020;-74
2023/03/07 05:21:40;;;;;;;15.00;9.43;;;6.70;98.80;;;;;;5088895;28;20028;-73
2023/03/07 05:24:06;;;;;;;17.35;9.82;;;6.80;98.80;;;;;;5076782;28;20505;-73
2023/03/07 05:26:32;;;;;;;22.10;12.30;;;6.80;98.80;;;;;;5089105;28;20032;-73
2023/03/07 05:28:58;;;;;;;29.92;18.38;;;6.90;98.60;;;;;;5075754;28;20051;-74
2023/03/07 05:31:24;;;;;;;29.40;16.35;;;6.80;98.50;;;;;;5088768;28;20047;-74
2023/03/07 05:33:50;;;;;;;18.38;9.75;;;6.80;98.60;;;;;;5084176;28;20024;-74
2023/03/07 05:36:16;;;;;;;32.72;16.70;;;6.70;98.50;;;;;;5071569;28;20025;-73
2023/03/07 05:38:41;;;;;;;26.05;14.32;;;6.70;98.60;;;;;;5076473;28;20031;-75
2023/03/07 05:41:07;;;;;;;22.80;13.50;;;6.70;98.70;;;;;;5073459;28;20074;-74
2023/03/07 05:43:33;;;;;;;21.35;11.57;;;6.70;98.70;;;;;;5072225;28;20902;-74
2023/03/07 05:45:59;;;;;;;26.38;11.13;;;6.70;98.60;;;;;;5077946;28;20032;-74
2023/03/07 05:48:24;;;;;;;15.73;8.43;;;6.70;98.70;;;;;;5075130;28;20023;-74
2023/03/07 05:50:50;;;;;;;15.60;7.57;;;6.70;98.70;;;;;;5082581;28;20025;-73
2023/03/07 05:53:16;;;;;;;12.82;7.20;;;6.70;98.60;;;;;;5073731;28;20016;-74
2023/03/07 05:55:41;;;;;;;10.63;5.15;;;6.60;98.50;;;;;;5072499;28;20020;-73
2023/03/07 05:58:07;;;;;;;9.82;4.65;;;6.60;98.20;;;;;;5073773;28;20024;-73
2023/03/07 06:00:32;;;;;;;11.55;5.38;;;6.50;97.90;;;;;;5078832;28;20040;-73
2023/03/07 06:03:01;;;;;;;10.15;4.70;;;6.40;97.90;;;;;;5081092;28;20016;-74
2023/03/07 06:05:27;;;;;;;10.95;4.03;;;6.30;98.00;;;;;;5076665;28;20016;-73
2023/03/07 06:07:53;;;;;;;10.55;4.40;;;6.20;98.10;;;;;;5076939;28;20044;-74
2023/03/07 06:10:19;;;;;;;10.45;5.47;;;6.20;98.10;;;;;;5083872;28;20544;-74
2023/03/07 06:12:52;;;;;;;12.85;5.47;;;6.20;98.20;;;;;;5081721;28;20435;-74
2023/03/07 06:15:19;;;;;;;10.40;4.43;;;6.30;98.20;;;;;;5079906;28;20048;-75
2023/03/07 06:17:45;;;;;;;11.65;4.82;;;6.30;98.20;;;;;;5079893;28;20024;-74
2023/03/07 06:20:11;;;;;;;10.48;4.93;;;6.30;98.20;;;;;;5079153;28;20016;-73
2023/03/07 06:22:37;;;;;;;9.55;3.72;;;6.30;98.20;;;;;;5082493;28;20029;-73
2023/03/07 06:25:07;;;;;;;11.35;4.63;;;6.30;98.10;;;;;;5083664;28;20028;-73
2023/03/07 06:27:37;;;;;;;8.23;3.65;;;6.30;98.00;;;;;;5080269;28;20082;-74
2023/03/07 06:30:04;;;;;;;8.80;3.73;;;6.30;98.10;;;;;;5076907;28;20024;-74
2023/03/07 06:32:31;;;;;;;9.23;2.83;;;6.30;97.90;;;;;;5077810;28;20282;-74
2023/03/07 06:34:57;;;;;;;5.80;2.10;;;6.20;97.50;;;;;;5077170;28;20081;-73
2023/03/07 06:37:23;;;;;;;7.95;1.67;;;6.10;97.40;;;;;;5080485;28;20031;-75
2023/03/07 06:39:49;;;;;;;9.23;1.58;;;6.00;97.40;;;;;;5076621;28;20383;-74
2023/03/07 06:42:14;;;;;;;6.28;1.42;;;5.90;97.40;;;;;;5082583;28;20125;-75
2023/03/07 06:44:40;;;;;;;6.97;1.45;;;5.90;97.00;;;;;;5083236;28;20109;-74
2023/03/07 06:47:06;;;;;;;10.10;1.75;;;5.80;96.90;;;;;;5069799;28;20108;-75
2023/03/07 06:49:32;;;;;;;7.80;1.75;;;5.70;96.80;;;;;;5072976;28;20020;-74
2023/03/07 06:51:57;;;;;;;4.53;1.30;;;5.70;96.70;;;;;;5089195;28;20024;-75
2023/03/07 06:54:23;;;;;;;9.40;1.67;;;5.70;96.80;;;;;;5089921;28;20493;-75
2023/03/07 06:56:50;;;;;;;3.85;1.23;;;5.70;96.60;;;;;;5079228;28;20024;-75
2023/03/07 06:59:16;;;;;;;5.25;1.48;;;5.60;96.50;;;;;;5083130;28;20021;-75
2023/03/07 07:01:42;;;;;;;7.68;1.30;;;5.50;96.50;;;;;;5085493;28;20031;-75
2023/03/07 07:04:09;;;;;;;4.75;1.25;;;5.50;96.50;;;;;;5091516;28;20032;-74
2023/03/07 07:06:35;;;;;;;5.93;1.20;;;5.50;96.70;;;;;;5086285;28;20050;-75
2023/03/07 07:09:01;;;;;;;7.22;1.80;;;5.30;97.00;;;;;;5070915;28;20485;-74
2023/03/07 07:11:27;;;;;;;6.88;1.52;;;5.30;97.20;;;;;;5081814;28;20490;-76
2023/03/07 07:13:52;;;;;;;8.63;1.60;;;5.10;97.30;;;;;;5074925;28;20031;-75
2023/03/07 07:16:19;;;;;;;6.22;1.50;;;5.10;97.30;;;;;;5076665;28;20025;-75
2023/03/07 07:18:50;;;;;;;4.18;1.60;;;5.10;97.40;;;;;;5076636;28;20153;-75
2023/03/07 07:21:17;;;;;;;7.72;1.65;;;5.00;97.50;;;;;;5074835;28;20441;-74
2023/03/07 07:23:43;;;;;;;6.43;1.52;;;5.00;97.60;;;;;;5080558;28;20024;-76
2023/03/07 07:26:09;;;;;;;5.85;1.80;;;4.90;97.40;;;;;;5081515;28;20020;-74
2023/03/07 07:28:34;;;;;;;6.70;1.50;;;4.80;97.50;;;;;;5077211;28;20024;-74
2023/03/07 07:31:00;;;;;;;5.32;1.63;;;4.90;97.70;;;;;;5074856;28;20028;-74
2023/03/07 07:33:25;;;;;;;4.40;1.92;;;4.80;97.80;;;;;;5073495;28;20036;-73
2023/03/07 07:35:51;;;;;;;5.00;2.08;;;4.70;97.70;;;;;;5080143;28;20055;-74
2023/03/07 07:38:17;;;;;;;5.45;2.20;;;4.70;97.70;;;;;;5084857;28;20032;-74
2023/03/07 07:40:43;;;;;;;6.35;1.80;;;4.70;97.80;;;;;;5080156;28;20082;-74
2023/03/07 07:43:18;;;;;;;4.13;1.50;;;4.70;97.80;;;;;;5085200;28;20787;-74
2023/03/07 07:45:43;;;;;;;5.82;1.90;;;4.60;97.70;;;;;;5070057;28;20025;-75
2023/03/07 07:48:09;;;;;;;5.47;2.08;;;4.60;97.80;;;;;;5079934;28;20020;-74
2023/03/07 07:50:35;;;;;;;4.07;1.77;;;4.60;97.80;;;;;;5081863;28;20032;-76
2023/03/07 07:53:00;;;;;;;6.55;1.52;;;4.50;98.00;;;;;;5072725;28;20040;-74
2023/03/07 07:55:26;;;;;;;8.63;2.10;;;4.50;98.00;;;;;;5077254;28;20020;-73
2023/03/07 07:57:52;;;;;;;8.02;1.90;;;4.50;98.20;;;;;;5073541;28;20467;-75
2023/03/07 08:00:20;;;;;;;5.70;2.33;;;4.50;98.40;;;;;;5078076;28;20489;-74
2023/03/07 08:02:49;;;;;;;8.10;2.35;;;4.50;98.40;;;;;;5078107;28;20103;-74
2023/03/07 08:05:16;;;;;;;7.70;2.10;;;4.60;98.50;;;;;;5073580;28;20025;-74
2023/03/07 08:07:42;;;;;;;10.60;5.28;;;4.60;98.40;;;;;;5080626;28;20040;-74
2023/03/07 08:10:09;;;;;;;19.27;9.43;;;4.70;98.40;;;;;;5075090;28;20421;-74
2023/03/07 08:12:35;;;;;;;6.43;3.80;;;4.70;98.30;;;;;;5080447;28;20039;-75
2023/03/07 08:15:00;;;;;;;6.93;2.70;;;4.70;98.10;;;;;;5079353;28;20020;-74
2023/03/07 08:17:28;;;;;;;6.93;2.58;;;4.70;98.10;;;;;;5085872;28;20082;-74
2023/03/07 08:19:54;;;;;;;9.55;2.63;;;4.70;98.00;;;;;;5076288;28;20131;-74
2023/03/07 08:22:20;;;;;;;7.47;2.45;;;4.80;98.00;;;;;;5081579;28;20052;-75
2023/03/07 08:24:46;;;;;;;8.48;3.63;;;4.70;97.90;;;;;;5077449;28;20689;-75
2023/03/07 08:27:12;;;;;;;13.07;4.95;;;4.70;98.00;;;;;;5085960;28;20385;-74
2023/03/07 08:29:37;;;;;;;13.07;3.92;;;4.70;98.00;;;;;;5075531;28;20043;-75
2023/03/07 08:32:03;;;;;;;15.10;6.10;;;4.70;98.10;;;;;;5072315;28;20510;-74
2023/03/07 08:34:31;;;;;;;11.82;5.40;;;4.70;98.00;;;;;;5070958;28;20035;-74
2023/03/07 08:36:57;;;;;;;12.10;4.80;;;4.60;98.00;;;;;;5081807;28;20028;-74
2023/03/07 08:39:22;;;;;;;8.27;4.80;;;4.70;98.00;;;;;;5077353;28;20073;-75
2023/03/07 08:41:48;;;;;;;13.30;4.60;;;4.60;97.90;;;;;;5074525;28;20028;-75
2023/03/07 08:44:13;;;;;;;9.93;4.40;;;4.50;97.90;;;;;;5081060;28;20082;-74
2023/03/07 08:46:39;;;;;;;11.85;5.90;;;4.50;98.10;;;;;;5081766;28;20444;-75
2023/03/07 08:49:05;;;;;;;10.05;4.95;;;4.40;98.30;;;;;;5072354;28;20031;-74
2023/03/07 08:51:30;;;;;;;9.30;5.30;;;4.50;98.40;;;;;;5081243;28;20090;-76
2023/03/07 08:53:57;;;;;;;12.73;5.30;;;4.50;98.50;;;;;;5070688;28;20051;-75
2023/03/07 08:56:23;;;;;;;10.95;4.47;;;4.40;98.40;;;;;;5077678;28;20088;-74
2023/03/07 08:58:52;;;;;;;9.38;5.82;;;4.50;98.30;;;;;;5070065;28;20028;-75
2023/03/07 09:01:18;;;;;;;9.48;5.07;;;4.50;98.40;;;;;;5076326;28;20024;-75
2023/03/07 09:03:44;;;;;;;8.40;5.38;;;4.50;98.30;;;;;;5087520;28;20099;-74
2023/03/07 09:06:16;;;;;;;11.95;5.88;;;4.50;98.30;;;;;;5076662;28;20397;-74
2023/03/07 09:08:42;;;;;;;12.23;6.57;;;4.50;98.40;;;;;;5073801;28;20044;-74
2023/03/07 09:11:08;;;;;;;12.27;7.45;;;4.40;98.50;;;;;;5075790;28;20024;-75
2023/03/07 09:13:34;;;;;;;10.70;6.65;;;4.40;98.50;;;;;;5073578;28;20025;-75
2023/03/07 09:16:03;;;;;;;10.13;6.25;;;4.40;98.50;;;;;;5075023;28;20056;-74
2023/03/07 09:18:28;;;;;;;10.88;6.28;;;4.50;98.50;;;;;;5073321;28;20036;-74
2023/03/07 09:20:54;;;;;;;9.73;5.47;;;4.50;98.40;;;;;;5071248;28;20028;-75
2023/03/07 09:23:19;;;;;;;8.93;5.65;;;4.30;98.50;;;;;;5073278;28;20036;-74
2023/03/07 09:25:45;;;;;;;11.88;5.30;;;4.30;98.80;;;;;;5077066;28;20087;-73
2023/03/07 09:28:11;;;;;;;8.90;6.20;;;4.40;98.80;;;;;;5070211;28;20028;-74
2023/03/07 09:30:36;;;;;;;11.07;6.00;;;4.40;99.00;;;;;;5072081;28;20491;-74
2023/03/07 09:33:03;;;;;;;8.50;5.50;;;4.50;98.80;;;;;;5081664;28;20020;-74
2023/03/07 09:35:28;;;;;;;10.63;5.47;;;4.50;98.80;;;;;;5071573;28;20074;-75
2023/03/07 09:37:54;;;;;;;9.25;5.78;;;4.50;99.00;;;;;;5080154;28;20477;-75
2023/03/07 09:40:25;;;;;;;9.80;5.72;;;4.50;98.80;;;;;;5070017;28;20443;-75
2023/03/07 09:43:05;;;;;;;7.25;5.20;;;4.60;98.80;;;;;;5076786;28;20066;-74
2023/03/07 09:45:48;;;;;;;9.73;6.30;;;4.60;98.80;;;;;;5074116;28;20482;-75
2023/03/07 09:48:42;;;;;;;8.45;5.80;;;4.60;98.70;;;;;;5080089;28;20024;-75
2023/03/07 09:51:12;;;;;;;8.90;5.90;;;4.60;98.80;;;;;;5077772;28;20025;-74
2023/03/07 09:54:01;;;;;;;11.25;6.20;;;4.60;98.90;;;;;;5070855;28;20020;-75
2023/03/07 09:56:51;;;;;;;9.95;5.93;;;4.70;99.10;;;;;;5073652;28;20016;-75
2023/03/07 09:59:32;;;;;;;8.98;5.65;;;4.60;98.90;;;;;;5072918;28;20021;-74
2023/03/07 10:02:11;;;;;;;11.38;6.55;;;4.60;98.80;;;;;;5079950;28;20013;-74
2023/03/07 10:04:50;;;;;;;10.00;6.13;;;4.60;99.00;;;;;;5073782;28;20044;-75
2023/03/07 10:07:20;;;;;;;9.80;5.57;;;4.50;98.90;;;;;;5078239;28;20159;-74
2023/03/07 10:09:46;;;;;;;10.60;4.77;;;4.60;99.10;;;;;;5075338;28;20048;-75
2023/03/07 10:12:27;;;;;;;7.60;4.28;;;4.60;99.00;;;;;;5079852;28;20329;-74
2023/03/07 10:15:05;;;;;;;8.35;4.43;;;4.60;98.90;;;;;;5079509;28;20035;-74
2023/03/07 10:17:52;;;;;;;7.75;4.50;;;4.60;99.10;;;;;;5072508;28;20123;-75
2023/03/07 10:20:26;;;;;;;8.98;4.05;;;4.60;99.30;;;;;;5067890;28;20437;-75
2023/03/07 10:22:58;;;;;;;9.00;4.75;;;4.70;99.40;;;;;;5074231;28;20031;-75
2023/03/07 10:25:39;;;;;;;8.93;4.60;;;4.70;99.50;;;;;;5070885;28;20039;-74
2023/03/07 10:28:20;;;;;;;9.45;5.70;;;4.70;99.50;;;;;;5074550;28;20031;-74
2023/03/07 10:30:48;;;;;;;8.80;5.63;;;4.80;99.50;;;;;;5072351;28;20170;-75
2023/03/07 10:33:19;;;;;;;8.88;5.47;;;4.90;99.40;;;;;;5072634;28;20028;-75
2023/03/07 10:35:58;;;;;;;;;;;4.80;99.20;;;;;;5073991;28;20054;-75
2023/03/07 10:38:30;;;;;;;10.18;5.55;;;4.90;99.30;;;;;;5074701;28;19908;-76
2023/03/07 10:41:17;;;;;;;6.28;4.10;;;4.90;99.30;;;;;;5073047;28;20031;-75
2023/03/07 10:43:44;;;;;;;9.27;4.60;;;5.00;99.00;;;;;;5075460;28;20040;-76
2023/03/07 10:46:12;;;;;;;7.72;5.07;;;5.10;99.00;;;;;;5075029;28;20475;-74
2023/03/07 10:48:42;;;;;;;9.30;4.75;;;5.20;99.00;;;;;;5075606;28;20032;-74
2023/03/07 10:51:26;;;;;;;11.10;5.13;;;5.20;99.20;;;;;;5075043;28;20085;-76
2023/03/07 10:53:54;;;;;;;7.28;4.55;;;5.20;98.80;;;;;;5072738;28;20474;-75
2023/03/07 10:56:20;;;;;;;5.78;3.13;;;5.30;99.00;;;;;;5073888;28;20044;-73
2023/03/07 10:59:04;;;;;;;5.75;3.17;;;5.40;98.80;;;;;;5071158;28;20044;-75
2023/03/07 11:01:31;;;;;;;6.47;4.00;;;5.40;98.20;;;;;;5075141;28;20035;-74
2023/03/07 11:04:00;;;;;;;6.78;3.42;;;5.50;98.40;;;;;;5077962;28;20033;-74
2023/03/07 11:06:39;;;;;;;6.35;3.85;;;5.50;98.00;;;;;;5073967;28;20035;-74
2023/03/07 11:09:18;;;;;;;7.07;3.58;;;5.50;98.50;;;;;;5075718;28;20126;-75
2023/03/07 11:11:50;;;;;;;5.80;2.70;;;5.70;98.40;;;;;;5075810;28;20077;-74
2023/03/07 11:14:16;;;;;;;7.47;3.65;;;5.70;98.30;;;;;;5076335;28;20103;-74
2023/03/07 11:16:49;;;;;;;7.40;3.05;;;5.80;98.30;;;;;;5074897;28;20168;-75
2023/03/07 11:19:37;;;;;;;63.85;27.60;;;5.90;98.10;;;;;;5069932;28;20490;-74
2023/03/07 11:22:24;;;;;;;7.95;3.03;;;5.80;97.40;;;;;;5071696;28;20051;-75
2023/03/07 11:24:53;;;;;;;10.98;4.57;;;6.00;97.20;;;;;;5071644;28;20040;-73
2023/03/07 11:27:45;;;;;;;107.13;37.63;;;6.00;97.40;;;;;;5073492;28;20037;-73
2023/03/07 11:30:20;;;;;;;6.70;2.92;;;6.00;97.30;;;;;;5073651;28;20031;-74
2023/03/07 11:33:06;;;;;;;12.23;5.03;;;6.00;97.50;;;;;;5075781;28;20127;-74
2023/03/07 11:35:59;;;;;;;6.10;2.35;;;6.00;97.30;;;;;;5070693;28;20040;-73
2023/03/07 11:38:49;;;;;;;7.85;3.47;;;6.00;97.10;;;;;;5072560;28;20096;-74
2023/03/07 11:41:30;;;;;;;6.60;2.27;;;5.90;97.60;;;;;;5072040;28;20093;-74
2023/03/07 11:43:59;;;;;;;6.60;2.25;;;5.80;97.20;;;;;;5070055;28;20294;-74
2023/03/07 11:46:31;;;;;;;6.53;2.70;;;5.80;97.00;;;;;;5071481;28;20020;-75
2023/03/07 11:49:15;;;;;;;5.38;2.50;;;5.80;97.00;;;;;;5071212;28;20059;-74
2023/03/07 11:51:50;;;;;;;5.88;2.47;;;5.70;97.10;;;;;;5072023;28;20036;-74
2023/03/07 11:54:34;;;;;;;8.35;3.20;;;5.70;97.30;;;;;;5073048;28;20106;-73
2023/03/07 11:57:12;;;;;;;7.65;3.05;;;5.60;97.70;;;;;;5070691;28;20433;-74
2023/03/07 12:00:14;;;;;;;6.00;2.80;;;5.60;97.90;;;;;;5069263;28;20400;-74
2023/03/07 12:03:06;;;;;;;7.28;3.40;;;5.70;98.10;;;;;;4999280;28;20025;-74
2023/03/07 12:05:49;;;;;;;5.60;2.42;;;5.60;98.00;;;;;;5075339;28;20127;-73
2023/03/07 12:08:33;;;;;;;7.57;2.70;;;5.50;97.70;;;;;;5073355;28;20052;-73
2023/03/07 12:11:24;;;;;;;8.70;3.58;;;5.50;97.80;;;;;;5075045;28;20047;-73
2023/03/07 12:13:53;;;;;;;6.15;2.58;;;5.50;97.70;;;;;;5075549;28;20467;-72
2023/03/07 12:16:51;;;;;;;7.28;2.88;;;5.40;98.00;;;;;;5075079;28;20028;-73
2023/03/07 12:19:52;;;;;;;6.88;2.60;;;5.60;98.10;;;;;;5073153;28;20025;-73
2023/03/07 12:22:23;;;;;;;8.27;2.67;;;5.60;98.10;;;;;;5071445;28;20024;-73
2023/03/07 12:24:58;;;;;;;5.70;2.80;;;5.60;98.00;;;;;;5070508;28;20057;-74
2023/03/07 12:27:38;;;;;;;5.80;2.28;;;5.60;98.00;;;;;;5069389;28;20031;-72
2023/03/07 12:30:24;;;;;;;6.50;1.85;;;5.60;98.10;;;;;;5073749;28;20028;-73
2023/03/07 12:32:50;;;;;;;6.95;2.22;;;5.40;97.30;;;;;;5071784;28;20548;-73
2023/03/07 12:35:40;;;;;;;3.50;1.58;;;5.40;97.30;;;;;;5071251;28;20031;-72
2023/03/07 12:38:28;;;;;;;4.70;1.98;;;5.30;97.30;;;;;;5081721;28;20490;-73
2023/03/07 12:41:00;;;;;;;5.65;1.77;;;5.10;97.40;;;;;;5072621;28;20036;-72
2023/03/07 12:43:37;;;;;;;4.38;2.13;;;5.10;97.60;;;;;;5074264;28;20022;-72
2023/03/07 12:46:21;;;;;;;3.55;1.50;;;5.00;97.90;;;;;;5073902;28;20378;-73
2023/03/07 12:48:58;;;;;;;4.63;1.30;;;5.20;98.10;;;;;;5072764;28;20024;-72
2023/03/07 12:51:35;;;;;;;3.78;1.13;;;5.10;97.80;;;;;;5076725;28;20100;-72
2023/03/07 12:54:17;;;;;;;4.80;1.35;;;5.10;97.50;;;;;;5069299;28;20028;-72
2023/03/07 12:56:52;;;;;;;5.07;1.63;;;5.00;97.80;;;;;;5068511;28;20344;-72
2023/03/07 12:59:20;;;;;;;4.45;1.20;;;5.00;98.20;;;;;;5073676;28;20486;-72
2023/03/07 13:02:18;;;;;;;2.80;1.20;;;4.90;98.10;;;;;;5072156;28;20019;-71
2023/03/07 13:04:44;;;;;;;2.92;1.20;;;5.00;98.20;;;;;;5068629;28;20491;-72